sensor_id;sensor_type;location;lat;lon;timestamp;P1;durP1;ratioP1;P2;durP2;ratioP2
67602;SDS011;54417;47.454;18.918;2022-09-09T00:04:18;6.35;;;2.67;;
67602;SDS011;54417;47.454;18.918;2022-09-09T00:09:52;10.80;;;2.70;;
67602;SDS011;54417;47.454;18.918;2022-09-09T00:15:24;2.75;;;2.55;;
67602;SDS011;54417;47.454;18.918;2022-09-09T00:20:53;2.85;;;2.53;;
67602;SDS011;54417;47.454;18.918;2022-09-09T00:26:30;3.50;;;2.60;;
67602;SDS011;54417;47.454;18.918;2022-09-09T00:32:00;4.57;;;3.10;;
67602;SDS011;54417;47.454;18.918;2022-09-09T00:37:34;4.32;;;3.08;;
67602;SDS011;54417;47.454;18.918;2022-09-09T00:43:03;4.47;;;3.20;;
67602;SDS011;54417;47.454;18.918;2022-09-09T00:48:55;3.25;;;2.90;;
67602;SDS011;54417;47.454;18.918;2022-09-09T00:54:27;3.50;;;2.83;;
67602;SDS011;54417;47.454;18.918;2022-09-09T01:00:16;4.30;;;3.00;;
67602;SDS011;54417;47.454;18.918;2022-09-09T01:05:43;4.70;;;2.92;;
67602;SDS011;54417;47.454;18.918;2022-09-09T01:11:10;3.03;;;2.72;;
67602;SDS011;54417;47.454;18.918;2022-09-09T01:16:45;3.67;;;2.85;;
67602;SDS011;54417;47.454;18.918;2022-09-09T01:22:11;7.72;;;3.15;;
67602;SDS011;54417;47.454;18.918;2022-09-09T01:27:43;3.03;;;2.83;;
67602;SDS011;54417;47.454;18.918;2022-09-09T01:33:12;2.83;;;2.55;;
67602;SDS011;54417;47.454;18.918;2022-09-09T01:38:37;3.10;;;2.80;;
67602;SDS011;54417;47.454;18.918;2022-09-09T01:44:03;3.30;;;3.00;;
67602;SDS011;54417;47.454;18.918;2022-09-09T01:49:29;3.38;;;2.70;;
67602;SDS011;54417;47.454;18.918;2022-09-09T01:54:53;3.65;;;2.90;;
67602;SDS011;54417;47.454;18.918;2022-09-09T02:00:22;3.58;;;3.22;;
67602;SDS011;54417;47.454;18.918;2022-09-09T02:05:52;3.78;;;3.42;;
67602;SDS011;54417;47.454;18.918;2022-09-09T02:11:28;7.65;;;3.90;;
67602;SDS011;54417;47.454;18.918;2022-09-09T02:17:16;8.10;;;3.13;;
67602;SDS011;54417;47.454;18.918;2022-09-09T02:23:01;3.95;;;2.72;;
67602;SDS011;54417;47.454;18.918;2022-09-09T02:28:28;4.90;;;2.20;;
67602;SDS011;54417;47.454;18.918;2022-09-09T02:33:57;3.25;;;2.38;;
67602;SDS011;54417;47.454;18.918;2022-09-09T02:39:23;1.50;;;1.40;;
67602;SDS011;54417;47.454;18.918;2022-09-09T02:44:47;2.30;;;1.92;;
67602;SDS011;54417;47.454;18.918;2022-09-09T02:50:13;2.40;;;1.80;;
67602;SDS011;54417;47.454;18.918;2022-09-09T02:55:41;1.98;;;1.80;;
67602;SDS011;54417;47.454;18.918;2022-09-09T03:01:12;1.77;;;1.67;;
67602;SDS011;54417;47.454;18.918;2022-09-09T03:06:38;1.55;;;1.40;;
67602;SDS011;54417;47.454;18.918;2022-09-09T03:12:11;1.83;;;1.58;;
67602;SDS011;54417;47.454;18.918;2022-09-09T03:17:35;2.40;;;1.90;;
67602;SDS011;54417;47.454;18.918;2022-09-09T03:23:00;4.57;;;2.15;;
67602;SDS011;54417;47.454;18.918;2022-09-09T03:28:24;3.45;;;2.55;;
67602;SDS011;54417;47.454;18.918;2022-09-09T03:33:55;3.80;;;2.80;;
67602;SDS011;54417;47.454;18.918;2022-09-09T03:39:23;4.28;;;2.45;;
67602;SDS011;54417;47.454;18.918;2022-09-09T03:44:47;8.68;;;2.72;;
67602;SDS011;54417;47.454;18.918;2022-09-09T03:50:15;3.83;;;2.65;;
67602;SDS011;54417;47.454;18.918;2022-09-09T03:55:44;6.10;;;3.15;;
67602;SDS011;54417;47.454;18.918;2022-09-09T04:01:09;4.22;;;3.60;;
67602;SDS011;54417;47.454;18.918;2022-09-09T04:06:37;5.63;;;4.72;;
67602;SDS011;54417;47.454;18.918;2022-09-09T04:12:03;6.63;;;5.28;;
67602;SDS011;54417;47.454;18.918;2022-09-09T04:17:29;7.00;;;5.53;;
67602;SDS011;54417;47.454;18.918;2022-09-09T04:22:53;9.35;;;6.85;;
67602;SDS011;54417;47.454;18.918;2022-09-09T04:28:19;8.95;;;6.55;;
67602;SDS011;54417;47.454;18.918;2022-09-09T04:33:44;11.00;;;7.40;;
67602;SDS011;54417;47.454;18.918;2022-09-09T04:39:08;13.60;;;7.90;;
67602;SDS011;54417;47.454;18.918;2022-09-09T04:44:35;12.00;;;8.50;;
67602;SDS011;54417;47.454;18.918;2022-09-09T04:49:59;18.70;;;9.65;;
67602;SDS011;54417;47.454;18.918;2022-09-09T04:55:23;9.63;;;7.85;;
67602;SDS011;54417;47.454;18.918;2022-09-09T05:00:49;8.60;;;7.40;;
67602;SDS011;54417;47.454;18.918;2022-09-09T05:06:14;10.95;;;8.30;;
67602;SDS011;54417;47.454;18.918;2022-09-09T05:11:41;9.70;;;8.65;;
67602;SDS011;54417;47.454;18.918;2022-09-09T05:17:33;7.82;;;6.60;;
67602;SDS011;54417;47.454;18.918;2022-09-09T05:22:57;6.55;;;5.32;;
67602;SDS011;54417;47.454;18.918;2022-09-09T05:28:24;5.25;;;4.70;;
67602;SDS011;54417;47.454;18.918;2022-09-09T05:33:50;6.03;;;4.40;;
67602;SDS011;54417;47.454;18.918;2022-09-09T05:39:14;4.60;;;3.75;;
67602;SDS011;54417;47.454;18.918;2022-09-09T05:44:38;4.18;;;3.75;;
67602;SDS011;54417;47.454;18.918;2022-09-09T05:50:06;4.45;;;3.53;;
67602;SDS011;54417;47.454;18.918;2022-09-09T05:55:31;6.03;;;4.55;;
67602;SDS011;54417;47.454;18.918;2022-09-09T06:01:00;6.45;;;3.88;;
67602;SDS011;54417;47.454;18.918;2022-09-09T06:06:29;4.00;;;3.63;;
67602;SDS011;54417;47.454;18.918;2022-09-09T06:12:02;4.07;;;3.47;;
67602;SDS011;54417;47.454;18.918;2022-09-09T06:17:30;6.30;;;3.60;;
67602;SDS011;54417;47.454;18.918;2022-09-09T06:22:55;7.93;;;3.10;;
67602;SDS011;54417;47.454;18.918;2022-09-09T06:28:19;7.15;;;2.78;;
67602;SDS011;54417;47.454;18.918;2022-09-09T06:33:43;2.90;;;2.70;;
67602;SDS011;54417;47.454;18.918;2022-09-09T06:39:09;3.83;;;2.67;;
67602;SDS011;54417;47.454;18.918;2022-09-09T06:44:36;4.45;;;2.30;;
67602;SDS011;54417;47.454;18.918;2022-09-09T06:50:03;4.82;;;1.90;;
67602;SDS011;54417;47.454;18.918;2022-09-09T06:55:31;3.70;;;2.17;;
67602;SDS011;54417;47.454;18.918;2022-09-09T07:01:01;4.40;;;1.70;;
67602;SDS011;54417;47.454;18.918;2022-09-09T07:06:27;5.63;;;2.10;;
67602;SDS011;54417;47.454;18.918;2022-09-09T07:11:56;2.40;;;2.00;;
67602;SDS011;54417;47.454;18.918;2022-09-09T07:17:25;2.10;;;2.00;;
67602;SDS011;54417;47.454;18.918;2022-09-09T07:22:48;3.15;;;1.90;;
67602;SDS011;54417;47.454;18.918;2022-09-09T07:28:13;1.98;;;1.70;;
67602;SDS011;54417;47.454;18.918;2022-09-09T07:33:37;4.85;;;1.52;;
67602;SDS011;54417;47.454;18.918;2022-09-09T07:39:04;2.70;;;1.52;;
67602;SDS011;54417;47.454;18.918;2022-09-09T07:44:30;2.33;;;1.13;;
67602;SDS011;54417;47.454;18.918;2022-09-09T07:50:04;2.60;;;1.92;;
67602;SDS011;54417;47.454;18.918;2022-09-09T07:55:29;2.60;;;1.40;;
67602;SDS011;54417;47.454;18.918;2022-09-09T08:00:54;3.13;;;1.45;;
67602;SDS011;54417;47.454;18.918;2022-09-09T08:06:19;2.15;;;1.10;;
67602;SDS011;54417;47.454;18.918;2022-09-09T08:11:44;1.60;;;1.20;;
67602;SDS011;54417;47.454;18.918;2022-09-09T08:17:10;0.90;;;0.90;;
67602;SDS011;54417;47.454;18.918;2022-09-09T08:22:34;1.80;;;0.95;;
67602;SDS011;54417;47.454;18.918;2022-09-09T08:28:00;1.20;;;1.10;;
67602;SDS011;54417;47.454;18.918;2022-09-09T08:33:25;1.00;;;1.00;;
67602;SDS011;54417;47.454;18.918;2022-09-09T08:38:49;3.47;;;1.10;;
67602;SDS011;54417;47.454;18.918;2022-09-09T08:44:19;2.35;;;0.80;;
67602;SDS011;54417;47.454;18.918;2022-09-09T08:49:56;1.00;;;1.00;;
67602;SDS011;54417;47.454;18.918;2022-09-09T08:55:35;2.22;;;0.98;;
67602;SDS011;54417;47.454;18.918;2022-09-09T09:01:10;5.00;;;0.70;;
67602;SDS011;54417;47.454;18.918;2022-09-09T09:06:53;0.50;;;0.50;;
67602;SDS011;54417;47.454;18.918;2022-09-09T09:12:28;1.02;;;0.80;;
67602;SDS011;54417;47.454;18.918;2022-09-09T09:17:55;0.82;;;0.70;;
67602;SDS011;54417;47.454;18.918;2022-09-09T09:23:22;0.88;;;0.70;;
67602;SDS011;54417;47.454;18.918;2022-09-09T09:28:52;0.93;;;0.50;;
67602;SDS011;54417;47.454;18.918;2022-09-09T09:34:18;1.02;;;0.80;;
67602;SDS011;54417;47.454;18.918;2022-09-09T09:39:44;1.20;;;0.70;;
67602;SDS011;54417;47.454;18.918;2022-09-09T09:45:28;1.25;;;0.70;;
67602;SDS011;54417;47.454;18.918;2022-09-09T09:50:58;0.60;;;0.60;;
67602;SDS011;54417;47.454;18.918;2022-09-09T09:56:29;0.60;;;0.60;;
67602;SDS011;54417;47.454;18.918;2022-09-09T10:02:05;0.70;;;0.70;;
67602;SDS011;54417;47.454;18.918;2022-09-09T10:07:37;0.60;;;0.60;;
67602;SDS011;54417;47.454;18.918;2022-09-09T10:13:03;0.40;;;0.40;;
67602;SDS011;54417;47.454;18.918;2022-09-09T10:18:39;0.52;;;0.52;;
67602;SDS011;54417;47.454;18.918;2022-09-09T10:24:15;3.35;;;0.50;;
67602;SDS011;54417;47.454;18.918;2022-09-09T10:30:00;0.73;;;0.60;;
67602;SDS011;54417;47.454;18.918;2022-09-09T10:35:31;1.50;;;0.40;;
67602;SDS011;54417;47.454;18.918;2022-09-09T10:41:00;0.50;;;0.50;;
67602;SDS011;54417;47.454;18.918;2022-09-09T10:46:36;2.90;;;0.50;;
67602;SDS011;54417;47.454;18.918;2022-09-09T10:57:39;1.38;;;0.55;;
67602;SDS011;54417;47.454;18.918;2022-09-09T11:03:06;3.05;;;0.47;;
67602;SDS011;54417;47.454;18.918;2022-09-09T11:08:39;0.55;;;0.40;;
67602;SDS011;54417;47.454;18.918;2022-09-09T11:14:03;2.55;;;0.60;;
67602;SDS011;54417;47.454;18.918;2022-09-09T11:19:37;1.38;;;0.50;;
67602;SDS011;54417;47.454;18.918;2022-09-09T11:25:04;2.70;;;0.70;;
67602;SDS011;54417;47.454;18.918;2022-09-09T11:30:32;0.90;;;0.57;;
67602;SDS011;54417;47.454;18.918;2022-09-09T11:36:33;1.10;;;0.60;;
67602;SDS011;54417;47.454;18.918;2022-09-09T11:42:07;0.60;;;0.60;;
67602;SDS011;54417;47.454;18.918;2022-09-09T11:47:38;0.68;;;0.47;;
67602;SDS011;54417;47.454;18.918;2022-09-09T11:58:53;0.80;;;0.60;;
67602;SDS011;54417;47.454;18.918;2022-09-09T12:04:30;0.93;;;0.50;;
67602;SDS011;54417;47.454;18.918;2022-09-09T12:10:01;0.63;;;0.63;;
67602;SDS011;54417;47.454;18.918;2022-09-09T12:15:29;0.75;;;0.50;;
67602;SDS011;54417;47.454;18.918;2022-09-09T12:20:54;1.25;;;0.55;;
67602;SDS011;54417;47.454;18.918;2022-09-09T12:26:28;1.67;;;0.70;;
67602;SDS011;54417;47.454;18.918;2022-09-09T12:31:59;0.50;;;0.50;;
67602;SDS011;54417;47.454;18.918;2022-09-09T12:37:29;0.90;;;0.70;;
67602;SDS011;54417;47.454;18.918;2022-09-09T12:42:59;2.15;;;0.68;;
67602;SDS011;54417;47.454;18.918;2022-09-09T12:48:25;1.40;;;0.57;;
67602;SDS011;54417;47.454;18.918;2022-09-09T12:53:55;4.45;;;0.85;;
67602;SDS011;54417;47.454;18.918;2022-09-09T12:59:23;0.70;;;0.50;;
67602;SDS011;54417;47.454;18.918;2022-09-09T13:04:49;2.22;;;0.60;;
67602;SDS011;54417;47.454;18.918;2022-09-09T13:10:15;0.85;;;0.68;;
67602;SDS011;54417;47.454;18.918;2022-09-09T13:16:06;0.50;;;0.50;;
67602;SDS011;54417;47.454;18.918;2022-09-09T13:21:41;6.63;;;0.70;;
67602;SDS011;54417;47.454;18.918;2022-09-09T13:27:19;0.55;;;0.47;;
67602;SDS011;54417;47.454;18.918;2022-09-09T13:32:48;0.52;;;0.50;;
67602;SDS011;54417;47.454;18.918;2022-09-09T13:38:28;2.83;;;0.60;;
67602;SDS011;54417;47.454;18.918;2022-09-09T13:43:54;0.80;;;0.50;;
67602;SDS011;54417;47.454;18.918;2022-09-09T13:49:21;1.58;;;0.50;;
67602;SDS011;54417;47.454;18.918;2022-09-09T13:54:47;1.35;;;0.70;;
67602;SDS011;54417;47.454;18.918;2022-09-09T14:00:13;1.25;;;0.60;;
67602;SDS011;54417;47.454;18.918;2022-09-09T14:05:38;1.02;;;0.80;;
67602;SDS011;54417;47.454;18.918;2022-09-09T14:11:02;1.48;;;0.50;;
67602;SDS011;54417;47.454;18.918;2022-09-09T14:16:26;1.02;;;0.50;;
67602;SDS011;54417;47.454;18.918;2022-09-09T14:21:52;3.63;;;0.80;;
67602;SDS011;54417;47.454;18.918;2022-09-09T14:27:16;1.15;;;0.60;;
67602;SDS011;54417;47.454;18.918;2022-09-09T14:32:40;1.25;;;0.75;;
67602;SDS011;54417;47.454;18.918;2022-09-09T14:38:05;1.02;;;0.50;;
67602;SDS011;54417;47.454;18.918;2022-09-09T14:43:29;2.25;;;1.00;;
67602;SDS011;54417;47.454;18.918;2022-09-09T14:48:54;0.73;;;0.60;;
67602;SDS011;54417;47.454;18.918;2022-09-09T14:54:20;1.85;;;0.98;;
67602;SDS011;54417;47.454;18.918;2022-09-09T14:59:45;1.00;;;0.50;;
67602;SDS011;54417;47.454;18.918;2022-09-09T15:05:08;1.70;;;0.88;;
67602;SDS011;54417;47.454;18.918;2022-09-09T15:10:34;1.27;;;0.40;;
67602;SDS011;54417;47.454;18.918;2022-09-09T15:16:02;1.92;;;0.60;;
67602;SDS011;54417;47.454;18.918;2022-09-09T15:21:27;0.35;;;0.35;;
67602;SDS011;54417;47.454;18.918;2022-09-09T15:26:54;0.52;;;0.45;;
67602;SDS011;54417;47.454;18.918;2022-09-09T15:32:18;3.35;;;0.70;;
67602;SDS011;54417;47.454;18.918;2022-09-09T15:37:42;1.23;;;0.55;;
67602;SDS011;54417;47.454;18.918;2022-09-09T15:43:08;1.38;;;0.50;;
67602;SDS011;54417;47.454;18.918;2022-09-09T15:48:32;2.60;;;0.80;;
67602;SDS011;54417;47.454;18.918;2022-09-09T15:53:56;1.02;;;0.68;;
67602;SDS011;54417;47.454;18.918;2022-09-09T15:59:22;1.17;;;0.60;;
67602;SDS011;54417;47.454;18.918;2022-09-09T16:04:46;2.38;;;0.60;;
67602;SDS011;54417;47.454;18.918;2022-09-09T16:10:09;3.17;;;0.77;;
67602;SDS011;54417;47.454;18.918;2022-09-09T16:15:36;1.95;;;0.50;;
67602;SDS011;54417;47.454;18.918;2022-09-09T16:21:00;2.05;;;0.80;;
67602;SDS011;54417;47.454;18.918;2022-09-09T16:26:25;1.27;;;0.63;;
67602;SDS011;54417;47.454;18.918;2022-09-09T16:31:51;0.85;;;0.70;;
67602;SDS011;54417;47.454;18.918;2022-09-09T16:37:14;1.75;;;0.63;;
67602;SDS011;54417;47.454;18.918;2022-09-09T16:42:39;2.63;;;0.50;;
67602;SDS011;54417;47.454;18.918;2022-09-09T16:48:05;1.10;;;0.60;;
67602;SDS011;54417;47.454;18.918;2022-09-09T16:53:28;3.42;;;0.82;;
67602;SDS011;54417;47.454;18.918;2022-09-09T16:58:53;6.05;;;0.98;;
67602;SDS011;54417;47.454;18.918;2022-09-09T17:04:20;3.72;;;1.80;;
67602;SDS011;54417;47.454;18.918;2022-09-09T17:09:46;4.97;;;0.88;;
67602;SDS011;54417;47.454;18.918;2022-09-09T17:15:10;4.18;;;1.15;;
67602;SDS011;54417;47.454;18.918;2022-09-09T17:20:36;3.97;;;1.10;;
67602;SDS011;54417;47.454;18.918;2022-09-09T17:26:09;2.85;;;1.30;;
67602;SDS011;54417;47.454;18.918;2022-09-09T17:31:34;4.47;;;1.83;;
67602;SDS011;54417;47.454;18.918;2022-09-09T17:36:59;9.68;;;2.80;;
67602;SDS011;54417;47.454;18.918;2022-09-09T17:42:23;6.22;;;3.25;;
67602;SDS011;54417;47.454;18.918;2022-09-09T17:47:46;9.63;;;3.53;;
67602;SDS011;54417;47.454;18.918;2022-09-09T17:53:12;11.23;;;3.33;;
67602;SDS011;54417;47.454;18.918;2022-09-09T17:58:37;8.38;;;3.40;;
67602;SDS011;54417;47.454;18.918;2022-09-09T18:04:03;7.60;;;2.80;;
67602;SDS011;54417;47.454;18.918;2022-09-09T18:09:29;4.82;;;2.17;;
67602;SDS011;54417;47.454;18.918;2022-09-09T18:14:53;4.32;;;1.75;;
67602;SDS011;54417;47.454;18.918;2022-09-09T18:20:18;5.97;;;1.83;;
67602;SDS011;54417;47.454;18.918;2022-09-09T18:25:44;4.03;;;1.42;;
67602;SDS011;54417;47.454;18.918;2022-09-09T18:31:09;3.28;;;1.70;;
67602;SDS011;54417;47.454;18.918;2022-09-09T18:36:36;2.65;;;1.40;;
67602;SDS011;54417;47.454;18.918;2022-09-09T18:42:03;5.03;;;1.65;;
67602;SDS011;54417;47.454;18.918;2022-09-09T18:47:27;12.43;;;1.58;;
67602;SDS011;54417;47.454;18.918;2022-09-09T18:52:50;3.72;;;1.13;;
67602;SDS011;54417;47.454;18.918;2022-09-09T18:58:16;5.75;;;1.30;;
67602;SDS011;54417;47.454;18.918;2022-09-09T19:03:40;3.63;;;1.48;;
67602;SDS011;54417;47.454;18.918;2022-09-09T19:09:04;3.28;;;1.65;;
67602;SDS011;54417;47.454;18.918;2022-09-09T19:14:29;4.43;;;1.67;;
67602;SDS011;54417;47.454;18.918;2022-09-09T19:19:53;1.52;;;1.30;;
67602;SDS011;54417;47.454;18.918;2022-09-09T19:25:17;6.25;;;1.80;;
67602;SDS011;54417;47.454;18.918;2022-09-09T19:30:42;1.98;;;1.33;;
67602;SDS011;54417;47.454;18.918;2022-09-09T19:36:09;2.63;;;1.20;;
67602;SDS011;54417;47.454;18.918;2022-09-09T19:41:34;2.67;;;1.70;;
67602;SDS011;54417;47.454;18.918;2022-09-09T19:47:00;4.68;;;1.85;;
67602;SDS011;54417;47.454;18.918;2022-09-09T19:52:24;4.07;;;1.45;;
67602;SDS011;54417;47.454;18.918;2022-09-09T19:57:47;5.60;;;1.15;;
67602;SDS011;54417;47.454;18.918;2022-09-09T20:03:13;1.60;;;1.30;;
67602;SDS011;54417;47.454;18.918;2022-09-09T20:08:42;2.42;;;1.30;;
67602;SDS011;54417;47.454;18.918;2022-09-09T20:14:07;4.10;;;1.58;;
67602;SDS011;54417;47.454;18.918;2022-09-09T20:19:32;3.50;;;1.20;;
67602;SDS011;54417;47.454;18.918;2022-09-09T20:24:56;3.17;;;1.40;;
67602;SDS011;54417;47.454;18.918;2022-09-09T20:30:19;4.88;;;1.42;;
67602;SDS011;54417;47.454;18.918;2022-09-09T20:35:44;8.55;;;1.90;;
67602;SDS011;54417;47.454;18.918;2022-09-09T20:41:08;7.10;;;1.58;;
67602;SDS011;54417;47.454;18.918;2022-09-09T20:46:35;8.45;;;1.73;;
67602;SDS011;54417;47.454;18.918;2022-09-09T20:52:02;5.07;;;1.60;;
67602;SDS011;54417;47.454;18.918;2022-09-09T20:57:27;3.53;;;1.50;;
67602;SDS011;54417;47.454;18.918;2022-09-09T21:02:50;6.38;;;1.90;;
67602;SDS011;54417;47.454;18.918;2022-09-09T21:08:15;2.35;;;1.42;;
67602;SDS011;54417;47.454;18.918;2022-09-09T21:13:39;2.95;;;1.70;;
67602;SDS011;54417;47.454;18.918;2022-09-09T21:19:03;6.20;;;1.63;;
67602;SDS011;54417;47.454;18.918;2022-09-09T21:24:29;3.65;;;1.75;;
67602;SDS011;54417;47.454;18.918;2022-09-09T21:29:52;2.50;;;1.52;;
67602;SDS011;54417;47.454;18.918;2022-09-09T21:35:16;2.28;;;1.70;;
67602;SDS011;54417;47.454;18.918;2022-09-09T21:40:41;3.38;;;1.92;;
67602;SDS011;54417;47.454;18.918;2022-09-09T21:46:06;4.07;;;2.40;;
67602;SDS011;54417;47.454;18.918;2022-09-09T21:51:30;1.88;;;1.73;;
67602;SDS011;54417;47.454;18.918;2022-09-09T21:56:55;7.85;;;2.05;;
67602;SDS011;54417;47.454;18.918;2022-09-09T22:02:19;6.20;;;2.13;;
67602;SDS011;54417;47.454;18.918;2022-09-09T22:07:45;7.97;;;2.20;;
67602;SDS011;54417;47.454;18.918;2022-09-09T22:13:10;2.33;;;2.17;;
67602;SDS011;54417;47.454;18.918;2022-09-09T22:18:35;3.17;;;2.45;;
67602;SDS011;54417;47.454;18.918;2022-09-09T22:24:00;3.40;;;2.40;;
67602;SDS011;54417;47.454;18.918;2022-09-09T22:29:27;6.10;;;3.13;;
67602;SDS011;54417;47.454;18.918;2022-09-09T22:34:50;6.65;;;3.00;;
67602;SDS011;54417;47.454;18.918;2022-09-09T22:40:14;8.55;;;2.78;;
67602;SDS011;54417;47.454;18.918;2022-09-09T22:45:39;3.90;;;2.80;;
67602;SDS011;54417;47.454;18.918;2022-09-09T22:51:05;3.83;;;3.22;;
67602;SDS011;54417;47.454;18.918;2022-09-09T22:56:30;5.82;;;3.83;;
67602;SDS011;54417;47.454;18.918;2022-09-09T23:01:55;6.22;;;4.00;;
67602;SDS011;54417;47.454;18.918;2022-09-09T23:07:19;8.00;;;4.13;;
67602;SDS011;54417;47.454;18.918;2022-09-09T23:12:44;6.00;;;5.25;;
67602;SDS011;54417;47.454;18.918;2022-09-09T23:18:09;10.80;;;5.63;;
67602;SDS011;54417;47.454;18.918;2022-09-09T23:23:33;6.75;;;5.05;;
67602;SDS011;54417;47.454;18.918;2022-09-09T23:28:58;7.95;;;5.47;;
67602;SDS011;54417;47.454;18.918;2022-09-09T23:34:24;8.27;;;5.47;;
67602;SDS011;54417;47.454;18.918;2022-09-09T23:39:48;8.65;;;5.25;;
67602;SDS011;54417;47.454;18.918;2022-09-09T23:45:12;6.50;;;5.05;;
67602;SDS011;54417;47.454;18.918;2022-09-09T23:50:37;10.40;;;4.95;;
67602;SDS011;54417;47.454;18.918;2022-09-09T23:56:01;7.03;;;5.25;;
